sensor_id;sensor_type;location;lat;lon;timestamp;temperature;humidity
25102;DHT22;13087;51.472;5.464;2022-08-21T00:00:45;23.50;48.50
25102;DHT22;13087;51.472;5.464;2022-08-21T00:03:11;23.40;48.40
25102;DHT22;13087;51.472;5.464;2022-08-21T00:05:40;23.50;48.40
25102;DHT22;13087;51.472;5.464;2022-08-21T00:08:05;23.40;48.40
25102;DHT22;13087;51.472;5.464;2022-08-21T00:10:31;23.40;48.60
25102;DHT22;13087;51.472;5.464;2022-08-21T00:12:56;23.40;48.60
25102;DHT22;13087;51.472;5.464;2022-08-21T00:15:24;23.40;49.30
25102;DHT22;13087;51.472;5.464;2022-08-21T00:17:51;23.40;48.60
25102;DHT22;13087;51.472;5.464;2022-08-21T00:20:17;23.30;48.60
25102;DHT22;13087;51.472;5.464;2022-08-21T00:22:42;23.30;48.60
25102;DHT22;13087;51.472;5.464;2022-08-21T00:25:09;23.30;48.60
25102;DHT22;13087;51.472;5.464;2022-08-21T00:27:34;23.30;48.60
25102;DHT22;13087;51.472;5.464;2022-08-21T00:30:00;23.30;48.70
25102;DHT22;13087;51.472;5.464;2022-08-21T00:32:26;23.20;48.70
25102;DHT22;13087;51.472;5.464;2022-08-21T00:34:52;23.20;48.80
25102;DHT22;13087;51.472;5.464;2022-08-21T00:37:18;23.00;49.00
25102;DHT22;13087;51.472;5.464;2022-08-21T00:39:44;22.80;49.20
25102;DHT22;13087;51.472;5.464;2022-08-21T00:42:09;22.70;49.40
25102;DHT22;13087;51.472;5.464;2022-08-21T00:44:35;22.60;49.90
25102;DHT22;13087;51.472;5.464;2022-08-21T00:47:00;22.40;50.40
25102;DHT22;13087;51.472;5.464;2022-08-21T00:49:26;22.20;50.50
25102;DHT22;13087;51.472;5.464;2022-08-21T00:51:53;22.20;50.60
25102;DHT22;13087;51.472;5.464;2022-08-21T00:54:21;22.10;50.90
25102;DHT22;13087;51.472;5.464;2022-08-21T00:56:48;22.00;51.40
25102;DHT22;13087;51.472;5.464;2022-08-21T00:59:16;21.90;51.50
25102;DHT22;13087;51.472;5.464;2022-08-21T01:01:42;21.80;51.60
25102;DHT22;13087;51.472;5.464;2022-08-21T01:04:07;21.80;51.70
25102;DHT22;13087;51.472;5.464;2022-08-21T01:06:32;21.80;51.80
25102;DHT22;13087;51.472;5.464;2022-08-21T01:08:58;21.70;51.90
25102;DHT22;13087;51.472;5.464;2022-08-21T01:11:23;21.70;52.20
25102;DHT22;13087;51.472;5.464;2022-08-21T01:13:49;21.70;52.20
25102;DHT22;13087;51.472;5.464;2022-08-21T01:16:17;21.60;52.20
25102;DHT22;13087;51.472;5.464;2022-08-21T01:18:44;21.60;52.20
25102;DHT22;13087;51.472;5.464;2022-08-21T01:21:11;21.60;52.20
25102;DHT22;13087;51.472;5.464;2022-08-21T01:23:38;21.60;52.20
25102;DHT22;13087;51.472;5.464;2022-08-21T01:26:04;21.60;52.20
25102;DHT22;13087;51.472;5.464;2022-08-21T01:28:30;21.60;52.40
25102;DHT22;13087;51.472;5.464;2022-08-21T01:30:57;21.50;52.30
25102;DHT22;13087;51.472;5.464;2022-08-21T01:33:24;21.50;52.40
25102;DHT22;13087;51.472;5.464;2022-08-21T01:35:50;21.50;52.40
25102;DHT22;13087;51.472;5.464;2022-08-21T01:38:15;21.60;52.60
25102;DHT22;13087;51.472;5.464;2022-08-21T01:40:41;21.50;52.70
25102;DHT22;13087;51.472;5.464;2022-08-21T01:43:07;21.60;52.80
25102;DHT22;13087;51.472;5.464;2022-08-21T01:45:32;21.60;52.90
25102;DHT22;13087;51.472;5.464;2022-08-21T01:47:58;21.60;52.90
25102;DHT22;13087;51.472;5.464;2022-08-21T01:50:23;21.60;52.80
25102;DHT22;13087;51.472;5.464;2022-08-21T01:52:49;21.60;52.80
25102;DHT22;13087;51.472;5.464;2022-08-21T01:55:15;21.60;52.80
25102;DHT22;13087;51.472;5.464;2022-08-21T01:57:41;21.70;52.80
25102;DHT22;13087;51.472;5.464;2022-08-21T02:00:08;21.80;52.60
25102;DHT22;13087;51.472;5.464;2022-08-21T02:02:35;21.80;52.50
25102;DHT22;13087;51.472;5.464;2022-08-21T02:05:00;21.90;52.40
25102;DHT22;13087;51.472;5.464;2022-08-21T02:07:26;21.90;52.30
25102;DHT22;13087;51.472;5.464;2022-08-21T02:09:51;22.00;52.20
25102;DHT22;13087;51.472;5.464;2022-08-21T02:12:16;22.00;52.10
25102;DHT22;13087;51.472;5.464;2022-08-21T02:14:42;22.00;52.00
25102;DHT22;13087;51.472;5.464;2022-08-21T02:17:08;22.00;52.00
25102;DHT22;13087;51.472;5.464;2022-08-21T02:19:33;22.00;51.90
25102;DHT22;13087;51.472;5.464;2022-08-21T02:21:59;22.10;52.00
25102;DHT22;13087;51.472;5.464;2022-08-21T02:24:24;22.00;51.90
25102;DHT22;13087;51.472;5.464;2022-08-21T02:26:49;22.00;51.90
25102;DHT22;13087;51.472;5.464;2022-08-21T02:29:15;22.10;51.90
25102;DHT22;13087;51.472;5.464;2022-08-21T02:31:41;22.00;51.90
25102;DHT22;13087;51.472;5.464;2022-08-21T02:34:06;22.00;51.90
25102;DHT22;13087;51.472;5.464;2022-08-21T02:36:32;21.90;51.90
25102;DHT22;13087;51.472;5.464;2022-08-21T02:38:57;21.90;52.10
25102;DHT22;13087;51.472;5.464;2022-08-21T02:41:23;21.70;52.20
25102;DHT22;13087;51.472;5.464;2022-08-21T02:43:48;21.60;52.50
25102;DHT22;13087;51.472;5.464;2022-08-21T02:46:15;21.40;52.70
25102;DHT22;13087;51.472;5.464;2022-08-21T02:48:41;21.30;52.90
25102;DHT22;13087;51.472;5.464;2022-08-21T02:51:08;21.20;53.10
25102;DHT22;13087;51.472;5.464;2022-08-21T02:53:34;21.10;53.30
25102;DHT22;13087;51.472;5.464;2022-08-21T02:56:01;21.10;53.50
25102;DHT22;13087;51.472;5.464;2022-08-21T02:58:28;21.00;53.60
25102;DHT22;13087;51.472;5.464;2022-08-21T03:00:56;20.90;53.80
25102;DHT22;13087;51.472;5.464;2022-08-21T03:03:23;20.80;54.00
25102;DHT22;13087;51.472;5.464;2022-08-21T03:05:50;20.70;54.40
25102;DHT22;13087;51.472;5.464;2022-08-21T03:08:15;20.60;54.40
25102;DHT22;13087;51.472;5.464;2022-08-21T03:10:43;20.50;54.50
25102;DHT22;13087;51.472;5.464;2022-08-21T03:13:09;20.50;54.50
25102;DHT22;13087;51.472;5.464;2022-08-21T03:15:35;20.50;54.70
25102;DHT22;13087;51.472;5.464;2022-08-21T03:18:01;20.40;54.70
25102;DHT22;13087;51.472;5.464;2022-08-21T03:20:27;20.30;54.80
25102;DHT22;13087;51.472;5.464;2022-08-21T03:22:53;20.30;55.00
25102;DHT22;13087;51.472;5.464;2022-08-21T03:25:20;20.30;55.10
25102;DHT22;13087;51.472;5.464;2022-08-21T03:27:45;20.20;55.30
25102;DHT22;13087;51.472;5.464;2022-08-21T03:30:14;20.20;55.30
25102;DHT22;13087;51.472;5.464;2022-08-21T03:32:40;20.20;55.50
25102;DHT22;13087;51.472;5.464;2022-08-21T03:35:06;20.10;55.60
25102;DHT22;13087;51.472;5.464;2022-08-21T03:37:32;20.10;55.60
25102;DHT22;13087;51.472;5.464;2022-08-21T03:39:57;20.10;55.50
25102;DHT22;13087;51.472;5.464;2022-08-21T03:42:23;20.10;55.60
25102;DHT22;13087;51.472;5.464;2022-08-21T03:44:48;20.00;55.60
25102;DHT22;13087;51.472;5.464;2022-08-21T03:47:14;20.00;55.70
25102;DHT22;13087;51.472;5.464;2022-08-21T03:49:39;20.00;55.90
25102;DHT22;13087;51.472;5.464;2022-08-21T03:52:04;19.90;56.20
25102;DHT22;13087;51.472;5.464;2022-08-21T03:54:30;19.80;56.50
25102;DHT22;13087;51.472;5.464;2022-08-21T03:56:56;19.80;56.60
25102;DHT22;13087;51.472;5.464;2022-08-21T03:59:22;19.80;56.70
25102;DHT22;13087;51.472;5.464;2022-08-21T04:01:52;19.70;56.60
25102;DHT22;13087;51.472;5.464;2022-08-21T04:04:18;19.70;56.50
25102;DHT22;13087;51.472;5.464;2022-08-21T04:06:43;19.80;56.40
25102;DHT22;13087;51.472;5.464;2022-08-21T04:09:09;19.80;56.20
25102;DHT22;13087;51.472;5.464;2022-08-21T04:11:34;19.80;56.30
25102;DHT22;13087;51.472;5.464;2022-08-21T04:14:00;19.90;56.30
25102;DHT22;13087;51.472;5.464;2022-08-21T04:16:25;19.90;56.20
25102;DHT22;13087;51.472;5.464;2022-08-21T04:18:51;19.90;56.40
25102;DHT22;13087;51.472;5.464;2022-08-21T04:21:16;19.90;56.40
25102;DHT22;13087;51.472;5.464;2022-08-21T04:23:42;19.90;56.60
25102;DHT22;13087;51.472;5.464;2022-08-21T04:26:07;19.80;56.60
25102;DHT22;13087;51.472;5.464;2022-08-21T04:28:33;19.80;56.60
25102;DHT22;13087;51.472;5.464;2022-08-21T04:30:58;19.70;56.90
25102;DHT22;13087;51.472;5.464;2022-08-21T04:33:24;19.70;57.10
25102;DHT22;13087;51.472;5.464;2022-08-21T04:35:49;19.70;57.20
25102;DHT22;13087;51.472;5.464;2022-08-21T04:38:15;19.60;57.40
25102;DHT22;13087;51.472;5.464;2022-08-21T04:40:41;19.50;57.60
25102;DHT22;13087;51.472;5.464;2022-08-21T04:43:08;19.50;57.80
25102;DHT22;13087;51.472;5.464;2022-08-21T04:45:36;19.40;57.80
25102;DHT22;13087;51.472;5.464;2022-08-21T04:48:03;19.40;57.90
25102;DHT22;13087;51.472;5.464;2022-08-21T04:50:30;19.40;58.00
25102;DHT22;13087;51.472;5.464;2022-08-21T04:52:56;19.40;58.10
25102;DHT22;13087;51.472;5.464;2022-08-21T04:55:22;19.30;58.00
25102;DHT22;13087;51.472;5.464;2022-08-21T04:57:49;19.30;58.10
25102;DHT22;13087;51.472;5.464;2022-08-21T05:00:18;19.30;58.10
25102;DHT22;13087;51.472;5.464;2022-08-21T05:02:45;19.30;58.30
25102;DHT22;13087;51.472;5.464;2022-08-21T05:05:12;19.30;58.40
25102;DHT22;13087;51.472;5.464;2022-08-21T05:07:38;19.20;58.60
25102;DHT22;13087;51.472;5.464;2022-08-21T05:10:04;19.20;58.60
25102;DHT22;13087;51.472;5.464;2022-08-21T05:12:30;19.20;58.60
25102;DHT22;13087;51.472;5.464;2022-08-21T05:14:56;19.30;58.70
25102;DHT22;13087;51.472;5.464;2022-08-21T05:17:22;19.20;58.70
25102;DHT22;13087;51.472;5.464;2022-08-21T05:19:48;19.20;58.80
25102;DHT22;13087;51.472;5.464;2022-08-21T05:22:23;19.20;58.80
25102;DHT22;13087;51.472;5.464;2022-08-21T05:24:49;19.20;58.80
25102;DHT22;13087;51.472;5.464;2022-08-21T05:27:15;19.30;58.70
25102;DHT22;13087;51.472;5.464;2022-08-21T05:29:41;19.30;58.70
25102;DHT22;13087;51.472;5.464;2022-08-21T05:32:08;19.40;58.70
25102;DHT22;13087;51.472;5.464;2022-08-21T05:34:34;19.40;58.60
25102;DHT22;13087;51.472;5.464;2022-08-21T05:36:59;19.40;58.70
25102;DHT22;13087;51.472;5.464;2022-08-21T05:39:25;19.40;58.70
25102;DHT22;13087;51.472;5.464;2022-08-21T05:41:50;19.40;58.60
25102;DHT22;13087;51.472;5.464;2022-08-21T05:44:15;19.40;58.60
25102;DHT22;13087;51.472;5.464;2022-08-21T05:46:41;19.50;58.60
25102;DHT22;13087;51.472;5.464;2022-08-21T05:49:06;19.50;58.70
25102;DHT22;13087;51.472;5.464;2022-08-21T05:51:32;19.50;58.70
25102;DHT22;13087;51.472;5.464;2022-08-21T05:53:57;19.50;58.70
25102;DHT22;13087;51.472;5.464;2022-08-21T05:56:23;19.50;59.00
25102;DHT22;13087;51.472;5.464;2022-08-21T05:58:48;19.50;58.90
25102;DHT22;13087;51.472;5.464;2022-08-21T06:01:14;19.60;59.00
25102;DHT22;13087;51.472;5.464;2022-08-21T06:03:40;19.60;58.90
25102;DHT22;13087;51.472;5.464;2022-08-21T06:06:06;19.70;58.90
25102;DHT22;13087;51.472;5.464;2022-08-21T06:08:31;19.70;58.90
25102;DHT22;13087;51.472;5.464;2022-08-21T06:10:58;19.80;58.80
25102;DHT22;13087;51.472;5.464;2022-08-21T06:13:23;19.80;58.90
25102;DHT22;13087;51.472;5.464;2022-08-21T06:15:49;19.90;58.90
25102;DHT22;13087;51.472;5.464;2022-08-21T06:18:15;19.90;58.80
25102;DHT22;13087;51.472;5.464;2022-08-21T06:20:41;20.00;58.80
25102;DHT22;13087;51.472;5.464;2022-08-21T06:23:06;20.00;58.90
25102;DHT22;13087;51.472;5.464;2022-08-21T06:25:32;20.10;58.90
25102;DHT22;13087;51.472;5.464;2022-08-21T06:28:07;20.10;58.80
25102;DHT22;13087;51.472;5.464;2022-08-21T06:30:33;20.20;59.00
25102;DHT22;13087;51.472;5.464;2022-08-21T06:32:59;20.30;59.00
25102;DHT22;13087;51.472;5.464;2022-08-21T06:35:25;20.30;58.90
25102;DHT22;13087;51.472;5.464;2022-08-21T06:37:50;20.30;58.80
25102;DHT22;13087;51.472;5.464;2022-08-21T06:40:16;20.40;58.80
25102;DHT22;13087;51.472;5.464;2022-08-21T06:42:41;20.40;58.80
25102;DHT22;13087;51.472;5.464;2022-08-21T06:45:07;20.40;59.00
25102;DHT22;13087;51.472;5.464;2022-08-21T06:47:33;20.40;59.20
25102;DHT22;13087;51.472;5.464;2022-08-21T06:49:58;20.40;59.30
25102;DHT22;13087;51.472;5.464;2022-08-21T06:52:24;20.50;59.20
25102;DHT22;13087;51.472;5.464;2022-08-21T06:54:49;20.60;59.20
25102;DHT22;13087;51.472;5.464;2022-08-21T06:57:15;20.60;59.20
25102;DHT22;13087;51.472;5.464;2022-08-21T06:59:40;20.70;59.30
25102;DHT22;13087;51.472;5.464;2022-08-21T07:02:06;20.70;59.10
25102;DHT22;13087;51.472;5.464;2022-08-21T07:04:31;20.80;58.90
25102;DHT22;13087;51.472;5.464;2022-08-21T07:06:57;20.90;58.90
25102;DHT22;13087;51.472;5.464;2022-08-21T07:09:22;20.90;59.00
25102;DHT22;13087;51.472;5.464;2022-08-21T07:11:49;21.00;59.10
25102;DHT22;13087;51.472;5.464;2022-08-21T07:14:15;21.00;59.10
25102;DHT22;13087;51.472;5.464;2022-08-21T07:16:41;21.00;59.10
25102;DHT22;13087;51.472;5.464;2022-08-21T07:19:06;21.10;59.30
25102;DHT22;13087;51.472;5.464;2022-08-21T07:21:32;21.10;59.50
25102;DHT22;13087;51.472;5.464;2022-08-21T07:23:57;21.20;59.40
25102;DHT22;13087;51.472;5.464;2022-08-21T07:26:23;21.30;59.30
25102;DHT22;13087;51.472;5.464;2022-08-21T07:28:49;21.40;59.20
25102;DHT22;13087;51.472;5.464;2022-08-21T07:31:16;21.50;59.30
25102;DHT22;13087;51.472;5.464;2022-08-21T07:33:42;21.50;59.50
25102;DHT22;13087;51.472;5.464;2022-08-21T07:36:08;21.50;59.50
25102;DHT22;13087;51.472;5.464;2022-08-21T07:38:33;21.60;59.50
25102;DHT22;13087;51.472;5.464;2022-08-21T07:40:59;21.60;59.50
25102;DHT22;13087;51.472;5.464;2022-08-21T07:43:25;21.60;59.50
25102;DHT22;13087;51.472;5.464;2022-08-21T07:45:51;21.70;59.50
25102;DHT22;13087;51.472;5.464;2022-08-21T07:48:18;21.80;59.40
25102;DHT22;13087;51.472;5.464;2022-08-21T07:50:43;21.90;59.30
25102;DHT22;13087;51.472;5.464;2022-08-21T07:53:09;22.00;59.10
25102;DHT22;13087;51.472;5.464;2022-08-21T07:55:34;22.10;59.00
25102;DHT22;13087;51.472;5.464;2022-08-21T07:58:00;22.10;59.00
25102;DHT22;13087;51.472;5.464;2022-08-21T08:00:26;22.10;59.10
25102;DHT22;13087;51.472;5.464;2022-08-21T08:02:53;22.10;59.10
25102;DHT22;13087;51.472;5.464;2022-08-21T08:05:20;22.20;59.10
25102;DHT22;13087;51.472;5.464;2022-08-21T08:07:46;22.20;59.10
25102;DHT22;13087;51.472;5.464;2022-08-21T08:10:13;22.20;59.10
25102;DHT22;13087;51.472;5.464;2022-08-21T08:12:39;22.30;59.20
25102;DHT22;13087;51.472;5.464;2022-08-21T08:15:06;22.40;59.20
25102;DHT22;13087;51.472;5.464;2022-08-21T08:17:32;22.40;59.00
25102;DHT22;13087;51.472;5.464;2022-08-21T08:19:57;22.50;58.90
25102;DHT22;13087;51.472;5.464;2022-08-21T08:22:23;22.60;58.90
25102;DHT22;13087;51.472;5.464;2022-08-21T08:24:49;22.70;58.70
25102;DHT22;13087;51.472;5.464;2022-08-21T08:27:15;22.80;59.30
25102;DHT22;13087;51.472;5.464;2022-08-21T08:29:41;22.80;58.50
25102;DHT22;13087;51.472;5.464;2022-08-21T08:32:07;22.90;58.40
25102;DHT22;13087;51.472;5.464;2022-08-21T08:34:36;22.90;58.30
25102;DHT22;13087;51.472;5.464;2022-08-21T08:37:02;23.00;58.20
25102;DHT22;13087;51.472;5.464;2022-08-21T08:39:28;23.10;58.10
25102;DHT22;13087;51.472;5.464;2022-08-21T08:41:59;23.20;58.00
25102;DHT22;13087;51.472;5.464;2022-08-21T08:44:27;23.20;57.90
25102;DHT22;13087;51.472;5.464;2022-08-21T08:46:53;23.20;57.90
25102;DHT22;13087;51.472;5.464;2022-08-21T08:49:19;23.20;57.90
25102;DHT22;13087;51.472;5.464;2022-08-21T08:51:49;23.20;57.90
25102;DHT22;13087;51.472;5.464;2022-08-21T08:54:17;23.30;57.90
25102;DHT22;13087;51.472;5.464;2022-08-21T08:56:44;23.40;57.90
25102;DHT22;13087;51.472;5.464;2022-08-21T08:59:18;23.50;57.70
25102;DHT22;13087;51.472;5.464;2022-08-21T09:01:44;23.50;57.40
25102;DHT22;13087;51.472;5.464;2022-08-21T09:04:10;23.60;57.20
25102;DHT22;13087;51.472;5.464;2022-08-21T09:12:39;23.60;56.90
25102;DHT22;13087;51.472;5.464;2022-08-21T09:15:23;23.60;56.60
25102;DHT22;13087;51.472;5.464;2022-08-21T09:18:05;23.70;56.80
25102;DHT22;13087;51.472;5.464;2022-08-21T09:20:37;23.80;56.80
25102;DHT22;13087;51.472;5.464;2022-08-21T09:28:16;24.20;56.80
25102;DHT22;13087;51.472;5.464;2022-08-21T09:30:42;24.20;55.80
25102;DHT22;13087;51.472;5.464;2022-08-21T09:33:08;24.30;55.60
25102;DHT22;13087;51.472;5.464;2022-08-21T09:35:36;24.40;55.60
25102;DHT22;13087;51.472;5.464;2022-08-21T09:38:04;24.50;55.30
25102;DHT22;13087;51.472;5.464;2022-08-21T09:42:59;24.50;54.70
25102;DHT22;13087;51.472;5.464;2022-08-21T09:45:25;24.50;54.50
25102;DHT22;13087;51.472;5.464;2022-08-21T09:47:50;24.60;54.50
25102;DHT22;13087;51.472;5.464;2022-08-21T09:50:26;24.60;54.40
25102;DHT22;13087;51.472;5.464;2022-08-21T09:52:55;24.60;54.00
25102;DHT22;13087;51.472;5.464;2022-08-21T09:55:30;24.70;53.90
25102;DHT22;13087;51.472;5.464;2022-08-21T09:58:15;24.80;53.70
25102;DHT22;13087;51.472;5.464;2022-08-21T10:00:41;24.90;53.30
25102;DHT22;13087;51.472;5.464;2022-08-21T10:03:10;24.90;53.30
25102;DHT22;13087;51.472;5.464;2022-08-21T10:05:36;25.10;52.50
25102;DHT22;13087;51.472;5.464;2022-08-21T10:08:02;25.10;51.90
25102;DHT22;13087;51.472;5.464;2022-08-21T10:10:30;25.10;51.90
25102;DHT22;13087;51.472;5.464;2022-08-21T10:15:44;25.30;52.20
25102;DHT22;13087;51.472;5.464;2022-08-21T10:20:41;25.50;51.80
25102;DHT22;13087;51.472;5.464;2022-08-21T10:23:30;25.60;51.60
25102;DHT22;13087;51.472;5.464;2022-08-21T10:26:05;25.70;51.50
25102;DHT22;13087;51.472;5.464;2022-08-21T10:31:24;25.80;51.10
25102;DHT22;13087;51.472;5.464;2022-08-21T10:34:06;25.90;51.10
25102;DHT22;13087;51.472;5.464;2022-08-21T10:39:15;26.00;51.00
25102;DHT22;13087;51.472;5.464;2022-08-21T10:41:58;26.00;50.60
25102;DHT22;13087;51.472;5.464;2022-08-21T10:47:05;26.20;50.50
25102;DHT22;13087;51.472;5.464;2022-08-21T10:52:09;26.20;50.20
25102;DHT22;13087;51.472;5.464;2022-08-21T10:57:11;26.30;49.90
25102;DHT22;13087;51.472;5.464;2022-08-21T11:00:03;26.30;49.50
25102;DHT22;13087;51.472;5.464;2022-08-21T11:02:27;26.30;49.50
25102;DHT22;13087;51.472;5.464;2022-08-21T11:05:11;26.20;50.10
25102;DHT22;13087;51.472;5.464;2022-08-21T11:07:41;26.20;49.40
25102;DHT22;13087;51.472;5.464;2022-08-21T11:10:16;26.30;49.70
25102;DHT22;13087;51.472;5.464;2022-08-21T11:12:44;26.40;49.60
25102;DHT22;13087;51.472;5.464;2022-08-21T11:15:19;26.50;49.50
25102;DHT22;13087;51.472;5.464;2022-08-21T11:17:51;26.50;49.50
25102;DHT22;13087;51.472;5.464;2022-08-21T11:23:00;26.90;49.50
25102;DHT22;13087;51.472;5.464;2022-08-21T11:25:35;27.00;49.10
25102;DHT22;13087;51.472;5.464;2022-08-21T11:28:06;27.10;48.70
25102;DHT22;13087;51.472;5.464;2022-08-21T11:46:00;27.50;47.00
25102;DHT22;13087;51.472;5.464;2022-08-21T11:50:54;27.80;46.80
25102;DHT22;13087;51.472;5.464;2022-08-21T11:53:32;27.80;46.10
25102;DHT22;13087;51.472;5.464;2022-08-21T11:56:04;27.70;45.30
25102;DHT22;13087;51.472;5.464;2022-08-21T11:58:44;27.70;45.30
25102;DHT22;13087;51.472;5.464;2022-08-21T12:01:17;27.70;45.10
25102;DHT22;13087;51.472;5.464;2022-08-21T12:03:52;27.70;45.10
25102;DHT22;13087;51.472;5.464;2022-08-21T12:06:27;27.80;45.20
25102;DHT22;13087;51.472;5.464;2022-08-21T12:08:58;27.90;45.40
25102;DHT22;13087;51.472;5.464;2022-08-21T12:11:24;28.10;45.30
25102;DHT22;13087;51.472;5.464;2022-08-21T12:16:29;28.40;45.10
25102;DHT22;13087;51.472;5.464;2022-08-21T12:19:40;28.60;45.10
25102;DHT22;13087;51.472;5.464;2022-08-21T12:21:48;28.70;44.60
25102;DHT22;13087;51.472;5.464;2022-08-21T12:26:56;28.60;44.40
25102;DHT22;13087;51.472;5.464;2022-08-21T12:29:24;28.60;44.50
25102;DHT22;13087;51.472;5.464;2022-08-21T12:32:00;28.70;44.50
25102;DHT22;13087;51.472;5.464;2022-08-21T12:34:30;28.90;44.60
25102;DHT22;13087;51.472;5.464;2022-08-21T12:36:58;29.00;43.70
25102;DHT22;13087;51.472;5.464;2022-08-21T12:39:25;29.20;44.00
25102;DHT22;13087;51.472;5.464;2022-08-21T12:42:11;29.50;43.90
25102;DHT22;13087;51.472;5.464;2022-08-21T12:44:46;29.70;43.20
25102;DHT22;13087;51.472;5.464;2022-08-21T12:50:15;29.80;42.10
25102;DHT22;13087;51.472;5.464;2022-08-21T12:52:34;29.70;42.10
25102;DHT22;13087;51.472;5.464;2022-08-21T12:55:00;29.50;42.00
25102;DHT22;13087;51.472;5.464;2022-08-21T12:57:27;29.50;42.40
25102;DHT22;13087;51.472;5.464;2022-08-21T12:59:56;29.70;42.80
25102;DHT22;13087;51.472;5.464;2022-08-21T13:03:04;30.00;42.60
25102;DHT22;13087;51.472;5.464;2022-08-21T13:05:13;30.30;41.90
25102;DHT22;13087;51.472;5.464;2022-08-21T13:07:42;30.50;41.80
25102;DHT22;13087;51.472;5.464;2022-08-21T13:12:46;30.70;41.20
25102;DHT22;13087;51.472;5.464;2022-08-21T13:15:12;30.70;41.30
25102;DHT22;13087;51.472;5.464;2022-08-21T13:17:39;30.60;41.20
25102;DHT22;13087;51.472;5.464;2022-08-21T13:20:07;30.50;41.10
25102;DHT22;13087;51.472;5.464;2022-08-21T13:22:39;30.50;41.10
25102;DHT22;13087;51.472;5.464;2022-08-21T13:25:09;30.60;41.10
25102;DHT22;13087;51.472;5.464;2022-08-21T13:27:34;30.80;40.90
25102;DHT22;13087;51.472;5.464;2022-08-21T13:30:02;31.00;40.70
25102;DHT22;13087;51.472;5.464;2022-08-21T13:32:29;31.10;40.70
25102;DHT22;13087;51.472;5.464;2022-08-21T13:34:57;31.10;40.60
25102;DHT22;13087;51.472;5.464;2022-08-21T13:37:25;31.00;40.00
25102;DHT22;13087;51.472;5.464;2022-08-21T13:39:51;31.00;39.70
25102;DHT22;13087;51.472;5.464;2022-08-21T13:42:17;30.90;39.90
25102;DHT22;13087;51.472;5.464;2022-08-21T13:44:45;30.80;39.80
25102;DHT22;13087;51.472;5.464;2022-08-21T13:47:12;30.70;39.80
25102;DHT22;13087;51.472;5.464;2022-08-21T13:49:39;30.50;40.00
25102;DHT22;13087;51.472;5.464;2022-08-21T13:52:13;30.50;40.30
25102;DHT22;13087;51.472;5.464;2022-08-21T13:54:40;30.60;40.10
25102;DHT22;13087;51.472;5.464;2022-08-21T13:57:16;30.80;40.00
25102;DHT22;13087;51.472;5.464;2022-08-21T13:59:42;31.00;40.00
25102;DHT22;13087;51.472;5.464;2022-08-21T14:02:14;31.10;39.80
25102;DHT22;13087;51.472;5.464;2022-08-21T14:05:00;31.40;39.70
25102;DHT22;13087;51.472;5.464;2022-08-21T14:07:44;31.50;39.40
25102;DHT22;13087;51.472;5.464;2022-08-21T14:10:15;31.70;39.30
25102;DHT22;13087;51.472;5.464;2022-08-21T14:12:54;31.90;39.00
25102;DHT22;13087;51.472;5.464;2022-08-21T14:15:25;32.00;39.50
25102;DHT22;13087;51.472;5.464;2022-08-21T14:17:50;32.00;38.30
25102;DHT22;13087;51.472;5.464;2022-08-21T14:20:27;32.00;38.50
25102;DHT22;13087;51.472;5.464;2022-08-21T14:22:54;32.10;38.60
25102;DHT22;13087;51.472;5.464;2022-08-21T14:27:50;32.00;38.30
25102;DHT22;13087;51.472;5.464;2022-08-21T14:30:20;32.00;38.30
25102;DHT22;13087;51.472;5.464;2022-08-21T14:32:46;31.90;38.40
25102;DHT22;13087;51.472;5.464;2022-08-21T14:35:12;31.70;38.40
25102;DHT22;13087;51.472;5.464;2022-08-21T14:37:41;31.70;38.70
25102;DHT22;13087;51.472;5.464;2022-08-21T14:40:07;31.60;38.90
25102;DHT22;13087;51.472;5.464;2022-08-21T14:42:33;31.50;39.00
25102;DHT22;13087;51.472;5.464;2022-08-21T14:45:00;31.40;38.80
25102;DHT22;13087;51.472;5.464;2022-08-21T14:47:26;31.20;39.70
25102;DHT22;13087;51.472;5.464;2022-08-21T14:49:51;31.10;39.20
25102;DHT22;13087;51.472;5.464;2022-08-21T14:52:19;31.10;39.20
25102;DHT22;13087;51.472;5.464;2022-08-21T14:54:45;31.10;39.40
25102;DHT22;13087;51.472;5.464;2022-08-21T14:57:10;31.00;39.40
25102;DHT22;13087;51.472;5.464;2022-08-21T14:59:37;31.00;39.50
25102;DHT22;13087;51.472;5.464;2022-08-21T15:02:03;31.00;39.30
25102;DHT22;13087;51.472;5.464;2022-08-21T15:04:29;30.90;39.20
25102;DHT22;13087;51.472;5.464;2022-08-21T15:06:55;30.90;39.50
25102;DHT22;13087;51.472;5.464;2022-08-21T15:09:20;30.80;39.30
25102;DHT22;13087;51.472;5.464;2022-08-21T15:11:46;31.00;39.60
25102;DHT22;13087;51.472;5.464;2022-08-21T15:14:18;31.00;39.50
25102;DHT22;13087;51.472;5.464;2022-08-21T15:16:45;31.00;39.60
25102;DHT22;13087;51.472;5.464;2022-08-21T15:19:10;30.80;39.20
25102;DHT22;13087;51.472;5.464;2022-08-21T15:21:36;30.70;39.30
25102;DHT22;13087;51.472;5.464;2022-08-21T15:24:01;30.50;39.10
25102;DHT22;13087;51.472;5.464;2022-08-21T15:26:27;30.40;39.50
25102;DHT22;13087;51.472;5.464;2022-08-21T15:28:52;30.40;39.80
25102;DHT22;13087;51.472;5.464;2022-08-21T15:31:18;30.40;39.90
25102;DHT22;13087;51.472;5.464;2022-08-21T15:33:43;30.40;39.80
25102;DHT22;13087;51.472;5.464;2022-08-21T15:36:09;30.40;39.80
25102;DHT22;13087;51.472;5.464;2022-08-21T15:38:34;30.40;39.80
25102;DHT22;13087;51.472;5.464;2022-08-21T15:41:01;30.40;39.30
25102;DHT22;13087;51.472;5.464;2022-08-21T15:43:28;30.30;39.20
25102;DHT22;13087;51.472;5.464;2022-08-21T15:45:54;30.10;39.20
25102;DHT22;13087;51.472;5.464;2022-08-21T15:48:19;29.90;39.30
25102;DHT22;13087;51.472;5.464;2022-08-21T15:50:45;29.80;39.70
25102;DHT22;13087;51.472;5.464;2022-08-21T15:53:11;29.70;39.20
25102;DHT22;13087;51.472;5.464;2022-08-21T15:55:36;29.70;39.20
25102;DHT22;13087;51.472;5.464;2022-08-21T15:58:02;29.70;39.50
25102;DHT22;13087;51.472;5.464;2022-08-21T16:00:28;29.70;39.70
25102;DHT22;13087;51.472;5.464;2022-08-21T16:02:57;29.80;39.80
25102;DHT22;13087;51.472;5.464;2022-08-21T16:05:23;29.80;39.80
25102;DHT22;13087;51.472;5.464;2022-08-21T16:07:49;29.90;39.70
25102;DHT22;13087;51.472;5.464;2022-08-21T16:10:15;29.90;39.60
25102;DHT22;13087;51.472;5.464;2022-08-21T16:12:43;29.90;39.50
25102;DHT22;13087;51.472;5.464;2022-08-21T16:15:10;29.90;39.50
25102;DHT22;13087;51.472;5.464;2022-08-21T16:17:36;29.90;39.70
25102;DHT22;13087;51.472;5.464;2022-08-21T16:20:04;29.90;39.60
25102;DHT22;13087;51.472;5.464;2022-08-21T16:22:31;29.90;39.70
25102;DHT22;13087;51.472;5.464;2022-08-21T16:24:56;30.10;39.90
25102;DHT22;13087;51.472;5.464;2022-08-21T16:27:22;30.10;39.80
25102;DHT22;13087;51.472;5.464;2022-08-21T16:29:47;30.20;39.80
25102;DHT22;13087;51.472;5.464;2022-08-21T16:32:13;30.20;39.70
25102;DHT22;13087;51.472;5.464;2022-08-21T16:34:39;30.30;39.80
25102;DHT22;13087;51.472;5.464;2022-08-21T16:37:06;30.30;39.80